Boline, Louisiana
Current Conditions -  °F | °C
As of 12:15 AM on Saturday 01 Nov 2014 (Local Time) from KIER Reporting Station
Clear Clear  
Wind Chill: 53°   Ceiling: Unl
Heat Index: 53°   Visibility: 10mi
Dew Point: 42°   Wind: 9mph
Humidity: 66%   Direction: 30°NNE
Pressure: 30.31"   Gusts: NA
Location:  31.7926°N, 93.4001°W
Report Text: KIER 010515Z AUTO 03008KT 10SM CLR 12/06 A3031 RMK AO2 T01170055
Loading
Personal Weather Stations






























Interactive Weather Map
Tropical Storm Tracking
New forecast layout! Learn more

10-Day Weather Forecast

Advertisements
Track Severe Weather on mobile